Time;durP1;ratioP1;P1;durP2;ratioP2;P2;SDS_P1;SDS_P2;PMS_P1;PMS_P2;Temp;Humidity;BMP_temperature;BMP_pressure;BME280_temperature;BME280_humidity;BME280_pressure;Samples;Min_cycle;Max_cycle;Signal;HPM_P1;HPM_P2
2022/12/21 00:01:37;;;;;;;31.00;16.47;;;;;;;-0.07;54.19;102585.03;5012629;28;20394;-78
2022/12/21 00:04:04;;;;;;;30.40;16.73;;;;;;;-0.02;54.22;102583.09;5008889;28;20481;-77
2022/12/21 00:06:32;;;;;;;34.97;17.80;;;;;;;0.24;53.98;102581.31;5014674;28;20385;-77
2022/12/21 00:08:59;;;;;;;35.08;18.92;;;;;;;0.42;53.49;102579.78;5024616;28;20432;-77
2022/12/21 00:11:25;;;;;;;40.37;23.40;;;;;;;0.37;53.36;102572.94;5030443;28;20437;-77
2022/12/21 00:13:52;;;;;;;29.50;15.47;;;;;;;0.25;53.42;102577.78;5009208;28;20438;-77
2022/12/21 00:16:20;;;;;;;33.97;17.10;;;;;;;0.19;53.58;102576.25;5027663;28;20493;-77
2022/12/21 00:18:46;;;;;;;39.17;18.42;;;;;;;0.23;53.87;102577.81;5011126;28;20619;-77
2022/12/21 00:21:15;;;;;;;58.30;29.87;;;;;;;0.23;53.57;102570.00;5030138;28;20452;-77
2022/12/21 00:23:41;;;;;;;34.78;17.83;;;;;;;0.35;53.53;102574.75;5029147;28;20484;-77
2022/12/21 00:26:09;;;;;;;30.25;15.88;;;;;;;0.60;53.20;102563.41;5031224;28;20382;-77
2022/12/21 00:28:35;;;;;;;36.00;17.40;;;;;;;0.70;52.94;102562.13;5029617;28;20417;-77
2022/12/21 00:31:11;;;;;;;36.33;19.13;;;;;;;0.71;52.74;102565.59;5030260;28;20883;-77
2022/12/21 00:33:38;;;;;;;31.70;16.40;;;;;;;0.72;52.53;102570.75;5030498;28;20379;-78
2022/12/21 00:36:05;;;;;;;31.42;15.93;;;;;;;0.58;52.67;102567.84;5033765;28;20374;-79
2022/12/21 00:38:32;;;;;;;29.58;14.88;;;;;;;0.32;52.90;102566.19;5015645;28;20386;-79
2022/12/21 00:41:04;;;;;;;33.60;17.30;;;;;;;0.25;53.46;102569.94;5028156;28;20399;-76
2022/12/21 00:43:32;;;;;;;44.05;24.05;;;;;;;0.33;53.48;102566.16;5029741;28;20455;-77
2022/12/21 00:45:58;;;;;;;31.02;16.45;;;;;;;0.34;53.34;102549.59;5030004;28;20867;-77
2022/12/21 00:48:24;;;;;;;27.60;14.90;;;;;;;0.43;53.02;102561.41;5030746;28;20386;-77
2022/12/21 00:50:50;;;;;;;29.23;14.25;;;;;;;0.34;53.46;102559.16;5030927;28;20423;-77
2022/12/21 00:53:16;;;;;;;26.27;14.63;;;;;;;0.44;53.29;102562.28;5013658;28;20382;-78
2022/12/21 00:55:54;;;;;;;27.50;15.13;;;;;;;0.44;53.10;102550.09;5029484;28;20877;-77
2022/12/21 00:58:19;;;;;;;26.80;14.60;;;;;;;0.47;53.06;102552.59;5030844;28;20385;-77
2022/12/21 01:00:46;;;;;;;28.33;15.53;;;;;;;0.53;52.92;102554.09;5029646;28;20398;-77
2022/12/21 01:03:11;;;;;;;34.85;16.73;;;;;;;0.56;52.96;102551.38;5017537;28;20441;-78
2022/12/21 01:05:37;;;;;;;30.70;15.40;;;;;;;0.63;52.96;102545.03;5030757;28;20537;-77
2022/12/21 01:08:03;;;;;;;32.72;15.88;;;;;;;0.66;52.64;102541.44;5030804;28;20804;-77
2022/12/21 01:10:28;;;;;;;50.30;21.37;;;;;;;0.62;52.42;102539.84;5029942;28;20561;-77
2022/12/21 01:12:55;;;;;;;30.10;15.97;;;;;;;0.45;53.12;102530.94;5030840;28;20438;-77
2022/12/21 01:15:21;;;;;;;25.75;13.45;;;;;;;0.19;53.85;102534.53;5032824;28;20422;-78
2022/12/21 01:17:47;;;;;;;29.67;15.50;;;;;;;0.28;53.70;102535.94;5033302;28;20862;-78
2022/12/21 01:20:13;;;;;;;28.13;14.95;;;;;;;0.36;53.68;102531.25;5002402;28;20418;-78
2022/12/21 01:22:38;;;;;;;31.20;15.50;;;;;;;0.41;53.12;102523.25;5033359;28;20382;-78
2022/12/21 01:25:04;;;;;;;29.85;15.23;;;;;;;0.40;53.15;102521.56;5032358;28;20459;-78
2022/12/21 01:27:30;;;;;;;27.10;14.80;;;;;;;0.38;53.35;102519.03;5032573;28;20382;-78
2022/12/21 01:29:55;;;;;;;30.97;15.30;;;;;;;0.43;53.37;102517.06;5032822;28;20422;-78
2022/12/21 01:32:21;;;;;;;31.75;18.42;;;;;;;0.53;53.10;102518.41;5031496;28;20414;-78
2022/12/21 01:34:46;;;;;;;33.80;16.38;;;;;;;0.64;53.13;102523.22;5033256;28;20835;-78
2022/12/21 01:37:12;;;;;;;31.33;17.43;;;;;;;0.57;52.98;102514.78;5019214;28;20383;-79
2022/12/21 01:39:37;;;;;;;30.30;16.10;;;;;;;0.66;52.86;102512.72;5034871;28;20393;-78
2022/12/21 01:42:03;;;;;;;28.20;14.93;;;;;;;0.72;53.41;102521.16;5014694;28;20403;-78
2022/12/21 01:44:47;;;;;;;32.40;16.50;;;;;;;0.66;52.81;102515.31;5035627;28;20389;-78
2022/12/21 01:47:16;;;;;;;32.92;16.60;;;;;;;0.56;53.06;102513.09;5035812;28;20385;-77
2022/12/21 01:49:41;;;;;;;33.97;17.58;;;;;;;0.56;53.50;102505.25;5020287;28;20852;-78
2022/12/21 01:52:11;;;;;;;30.88;16.30;;;;;;;0.69;53.23;102510.84;5033727;28;20959;-77
2022/12/21 01:54:47;;;;;;;31.13;16.23;;;;;;;0.78;52.87;102499.19;5032432;28;20412;-77
2022/12/21 01:57:15;;;;;;;31.47;16.30;;;;;;;0.83;52.73;102496.34;5033972;28;20377;-78
2022/12/21 01:59:48;;;;;;;29.20;15.13;;;;;;;0.86;53.18;102491.03;5034311;28;20469;-77
2022/12/21 02:02:19;;;;;;;32.28;16.63;;;;;;;0.80;52.83;102493.91;5033198;28;20390;-77
2022/12/21 02:04:46;;;;;;;28.15;15.48;;;;;;;0.51;53.32;102481.09;5033729;28;20755;-78
2022/12/21 02:07:12;;;;;;;29.83;16.52;;;;;;;0.61;53.36;102489.41;5033575;28;20831;-77
2022/12/21 02:09:37;;;;;;;34.83;22.85;;;;;;;0.62;53.14;102487.66;5013566;28;20913;-77
2022/12/21 02:12:05;;;;;;;34.45;19.15;;;;;;;0.53;53.44;102483.66;5021426;28;20966;-77
2022/12/21 02:14:34;;;;;;;29.85;15.80;;;;;;;0.48;53.55;102480.38;5033968;28;20878;-78
2022/12/21 02:17:15;;;;;;;28.65;16.50;;;;;;;0.55;53.05;102477.44;5011835;28;20394;-78
2022/12/21 02:20:01;;;;;;;30.40;16.38;;;;;;;0.70;52.85;102476.00;5033307;28;20386;-77
2022/12/21 02:22:29;;;;;;;32.53;16.80;;;;;;;0.59;52.89;102469.50;5034674;28;20371;-78
2022/12/21 02:25:20;;;;;;;30.98;15.93;;;;;;;0.64;53.05;102465.78;5031482;28;20398;-78
2022/12/21 02:28:16;;;;;;;35.03;16.65;;;;;;;0.68;52.91;102451.69;5017043;28;20724;-77
2022/12/21 02:31:09;;;;;;;28.40;15.13;;;;;;;0.71;53.30;102450.75;5032493;28;20497;-78
2022/12/21 02:33:54;;;;;;;33.63;15.90;;;;;;;0.69;53.01;102444.75;5032951;28;20859;-78
2022/12/21 02:36:19;;;;;;;32.60;18.27;;;;;;;0.79;52.79;102445.19;5015226;28;20418;-78
2022/12/21 02:39:22;;;;;;;32.50;15.67;;;;;;;0.72;53.02;102439.38;5032624;28;20401;-77
2022/12/21 02:41:52;;;;;;;33.00;19.75;;;;;;;0.80;52.94;102431.25;5032141;28;20383;-78
2022/12/21 02:44:18;;;;;;;31.85;17.55;;;;;;;0.80;52.95;102421.66;5032937;28;20385;-78
2022/12/21 02:47:05;;;;;;;30.48;15.63;;;;;;;0.84;53.01;102424.97;5013149;28;20390;-77
2022/12/21 02:50:03;;;;;;;29.13;16.10;;;;;;;0.92;53.00;102415.06;5032097;28;20395;-78
2022/12/21 02:52:38;;;;;;;29.75;15.80;;;;;;;0.92;52.90;102404.63;5032658;28;20394;-78
2022/12/21 02:55:04;;;;;;;27.17;15.07;;;;;;;0.82;52.88;102393.72;5024391;28;20493;-77
2022/12/21 02:57:37;;;;;;;28.70;17.13;;;;;;;0.89;53.15;102399.53;5033593;28;20382;-77
2022/12/21 03:00:07;;;;;;;30.02;16.02;;;;;;;0.93;52.79;102396.69;5036864;28;20378;-77
2022/12/21 03:06:13;;;;;;;28.67;14.60;;;;;;;0.68;53.12;102386.44;5031587;28;20401;-77
2022/12/21 03:08:57;;;;;;;29.17;15.45;;;;;;;0.60;53.03;102385.09;5032190;28;20362;-77
2022/12/21 03:11:34;;;;;;;31.15;17.67;;;;;;;0.62;53.18;102380.66;5031620;28;20398;-77
2022/12/21 03:14:03;;;;;;;32.77;17.13;;;;;;;0.85;52.78;102377.94;5033249;28;20421;-78
2022/12/21 03:16:34;;;;;;;32.92;16.83;;;;;;;0.93;52.72;102373.19;5032846;28;20477;-77
2022/12/21 03:19:02;;;;;;;29.13;16.08;;;;;;;0.98;52.47;102364.34;5033339;28;20390;-78
2022/12/21 03:21:42;;;;;;;36.05;25.60;;;;;;;0.99;52.64;102364.28;5032133;28;20468;-78
2022/12/21 03:24:31;;;;;;;27.13;15.48;;;;;;;0.89;52.81;102370.81;5033022;28;20418;-78
2022/12/21 03:27:01;;;;;;;29.73;16.50;;;;;;;0.75;53.05;102367.00;5031044;28;20794;-78
2022/12/21 03:29:33;;;;;;;30.17;15.50;;;;;;;0.86;52.85;102376.16;5033148;28;20442;-77
2022/12/21 03:32:06;;;;;;;32.38;18.05;;;;;;;0.92;52.90;102368.91;5011479;28;20982;-77
2022/12/21 03:34:39;;;;;;;27.40;14.93;;;;;;;0.83;52.92;102363.22;5012372;28;20392;-77
2022/12/21 03:37:35;;;;;;;30.23;15.70;;;;;;;0.65;53.34;102365.72;5007583;28;20732;-77
2022/12/21 03:40:08;;;;;;;28.98;14.93;;;;;;;0.65;53.21;102367.47;4992029;28;20428;-76
2022/12/21 03:42:36;;;;;;;27.88;14.95;;;;;;;0.47;53.43;102369.06;5007320;28;20388;-78
2022/12/21 03:45:08;;;;;;;23.80;14.00;;;;;;;0.48;53.55;102378.63;5012408;28;20412;-78
2022/12/21 03:47:42;;;;;;;28.45;14.45;;;;;;;0.40;53.83;102378.94;4998204;28;20393;-77
2022/12/21 03:50:21;;;;;;;29.80;14.90;;;;;;;0.30;53.93;102370.63;5004937;28;20419;-77
2022/12/21 03:52:54;;;;;;;24.27;13.77;;;;;;;0.31;54.07;102377.56;5010044;28;20420;-77
2022/12/21 03:55:30;;;;;;;27.02;14.43;;;;;;;0.02;54.90;102378.72;5011535;28;20816;-77
2022/12/21 03:57:57;;;;;;;26.08;14.02;;;;;;;0.04;54.81;102376.03;5011455;28;20384;-77
2022/12/21 04:00:24;;;;;;;28.05;14.02;;;;;;;0.10;54.62;102365.38;4996681;28;20403;-77
2022/12/21 04:03:08;;;;;;;30.67;14.87;;;;;;;0.23;54.11;102355.28;5011530;28;20384;-77
2022/12/21 04:05:41;;;;;;;27.50;15.30;;;;;;;0.37;53.97;102356.41;5008187;28;20404;-77
2022/12/21 04:08:07;;;;;;;30.58;16.20;;;;;;;0.31;53.94;102358.47;5011163;28;20884;-78
2022/12/21 04:10:32;;;;;;;31.30;17.35;;;;;;;0.22;54.51;102371.84;4994840;28;20400;-77
2022/12/21 04:12:58;;;;;;;36.03;18.70;;;;;;;0.16;54.61;102363.38;5012193;28;20443;-77
2022/12/21 04:16:03;;;;;;;28.15;16.65;;;;;;;0.14;54.54;102362.56;5009232;28;20455;-77
2022/12/21 04:18:12;;;;;;;29.48;15.30;;;;;;;0.08;54.83;102367.19;5011229;28;20406;-78
2022/12/21 04:20:37;;;;;;;29.52;14.55;;;;;;;-0.32;56.11;102364.38;5010730;28;20382;-77
2022/12/21 04:28:32;;;;;;;29.75;14.88;;;;;;;-0.14;55.60;102375.88;5010723;28;20379;-76
2022/12/21 04:30:59;;;;;;;24.15;13.93;;;;;;;-0.12;55.55;102374.03;5007916;28;20408;-77
2022/12/21 04:33:27;;;;;;;27.58;14.75;;;;;;;-0.11;55.49;102370.53;5010692;28;20395;-77
2022/12/21 04:38:40;;;;;;;29.08;14.32;;;;;;;-0.09;55.55;102368.72;5010119;28;20494;-77
2022/12/21 04:41:05;;;;;;;29.75;17.60;;;;;;;0.13;55.16;102371.31;5009861;28;20860;-77
2022/12/21 04:43:31;;;;;;;27.67;13.38;;;;;;;0.16;55.22;102358.16;5025511;28;20387;-78
2022/12/21 04:46:08;;;;;;;27.77;15.18;;;;;;;0.23;54.63;102361.34;4998928;28;20410;-77
2022/12/21 04:48:35;;;;;;;28.67;17.63;;;;;;;0.12;55.19;102355.72;5011495;28;20372;-77
2022/12/21 04:51:06;;;;;;;26.92;13.73;;;;;;;-0.16;55.63;102362.03;5009668;28;20453;-77
2022/12/21 04:53:31;;;;;;;27.42;14.45;;;;;;;-0.35;56.29;102356.69;5009335;28;20488;-77
2022/12/21 04:55:57;;;;;;;31.35;15.02;;;;;;;-0.25;56.04;102359.81;5002701;28;20476;-78
2022/12/21 04:58:22;;;;;;;28.75;14.52;;;;;;;-0.31;55.85;102355.66;5003363;28;20467;-78
2022/12/21 05:00:48;;;;;;;25.23;13.97;;;;;;;-0.29;55.84;102351.25;5008237;28;20403;-78
2022/12/21 05:03:13;;;;;;;27.53;14.67;;;;;;;-0.24;55.87;102357.09;5011577;28;20384;-78
2022/12/21 05:05:39;;;;;;;37.33;20.50;;;;;;;-0.18;55.76;102358.66;5013323;28;20584;-77
2022/12/21 05:08:04;;;;;;;29.73;16.27;;;;;;;-0.16;55.79;102358.56;5010357;28;20388;-77
2022/12/21 05:10:30;;;;;;;32.40;17.40;;;;;;;-0.19;55.90;102354.34;5008593;28;20483;-77
2022/12/21 05:12:55;;;;;;;33.33;17.07;;;;;;;-0.22;56.14;102360.53;5007967;28;20761;-77
2022/12/21 05:15:21;;;;;;;26.55;14.25;;;;;;;-0.44;56.51;102354.44;5006981;28;20717;-77
2022/12/21 05:17:46;;;;;;;25.17;13.73;;;;;;;-0.37;56.37;102348.06;5006807;28;20396;-78
2022/12/21 05:20:12;;;;;;;27.10;14.23;;;;;;;-0.17;56.14;102341.25;5008032;28;20738;-77
2022/12/21 05:22:37;;;;;;;29.50;14.97;;;;;;;-0.03;55.87;102328.53;5007882;28;20412;-77
2022/12/21 05:25:03;;;;;;;26.23;14.63;;;;;;;-0.02;55.31;102319.78;5006594;28;20478;-78
2022/12/21 05:27:28;;;;;;;26.50;14.47;;;;;;;0.06;55.34;102320.31;5009629;28;20479;-76
2022/12/21 05:29:54;;;;;;;28.23;14.47;;;;;;;0.18;54.95;102322.44;5011881;28;20450;-76
2022/12/21 05:32:19;;;;;;;26.70;14.03;;;;;;;0.10;55.19;102318.44;5028012;28;20917;-77
2022/12/21 05:34:45;;;;;;;30.58;15.80;;;;;;;0.12;55.46;102314.00;5027932;28;20524;-76
2022/12/21 05:37:10;;;;;;;29.85;16.45;;;;;;;0.18;54.90;102314.63;5011921;28;20785;-78
2022/12/21 05:39:36;;;;;;;27.27;14.40;;;;;;;0.15;54.85;102306.91;5027691;28;20402;-77
2022/12/21 05:42:02;;;;;;;27.40;14.67;;;;;;;0.10;54.83;102306.25;5029008;28;20429;-77
2022/12/21 05:44:28;;;;;;;30.08;15.73;;;;;;;0.04;55.33;102308.25;5019690;28;20390;-78
2022/12/21 05:46:53;;;;;;;28.38;15.38;;;;;;;0.23;54.87;102301.38;5009277;28;20400;-77
2022/12/21 05:49:19;;;;;;;30.17;15.68;;;;;;;0.43;54.87;102300.53;5022128;28;20489;-77
2022/12/21 05:51:48;;;;;;;28.25;16.20;;;;;;;0.42;54.49;102292.78;5009116;28;20428;-78
2022/12/21 05:54:17;;;;;;;46.63;23.48;;;;;;;0.38;54.45;102289.47;5025519;28;20402;-76
2022/12/21 05:56:43;;;;;;;80.45;39.40;;;;;;;0.41;54.28;102302.34;5029366;28;20421;-77
2022/12/21 05:59:09;;;;;;;45.67;22.48;;;;;;;0.31;54.43;102294.09;5011053;28;20394;-77
2022/12/21 06:01:35;;;;;;;32.67;17.65;;;;;;;0.46;54.61;102297.78;5028461;28;20452;-78
2022/12/21 06:04:01;;;;;;;28.70;16.75;;;;;;;0.47;54.34;102286.47;5030983;28;20762;-79
2022/12/21 06:06:26;;;;;;;29.73;15.98;;;;;;;0.42;54.68;102296.25;5031151;28;20843;-78
2022/12/21 06:08:52;;;;;;;28.73;15.48;;;;;;;0.48;54.20;102295.97;5031248;28;20393;-78
2022/12/21 06:11:23;;;;;;;26.88;14.90;;;;;;;0.52;54.29;102297.56;5029924;28;20401;-78
2022/12/21 06:13:50;;;;;;;27.73;15.48;;;;;;;0.42;54.31;102304.06;5030954;28;20389;-78
2022/12/21 06:16:18;;;;;;;23.85;13.93;;;;;;;0.31;54.20;102301.91;5011738;28;20390;-78
2022/12/21 06:18:45;;;;;;;31.37;15.77;;;;;;;0.25;54.64;102299.53;5023265;28;20493;-78
2022/12/21 06:21:12;;;;;;;29.48;15.93;;;;;;;0.31;54.71;102291.47;5031843;28;20375;-79
2022/12/21 06:23:39;;;;;;;30.05;15.10;;;;;;;0.35;54.67;102303.47;5031948;28;20446;-79
2022/12/21 06:26:07;;;;;;;28.50;15.03;;;;;;;0.18;54.61;102298.09;5032093;28;20451;-78
2022/12/21 06:28:33;;;;;;;29.67;15.43;;;;;;;0.24;54.68;102299.63;5031623;28;20417;-78
2022/12/21 06:31:07;;;;;;;28.37;15.03;;;;;;;0.16;54.69;102292.97;5032536;28;20445;-78
2022/12/21 06:33:33;;;;;;;21.35;11.93;;;;;;;-0.21;55.56;102293.63;5017917;28;20386;-79
2022/12/21 06:35:59;;;;;;;21.42;12.82;;;;;;;-0.64;56.85;102295.28;5027767;28;20406;-77
2022/12/21 06:38:25;;;;;;;23.17;13.87;;;;;;;-0.51;56.70;102293.06;5034640;28;20389;-78
2022/12/21 06:40:59;;;;;;;21.52;12.93;;;;;;;-0.20;55.67;102298.78;5025676;28;20477;-76
2022/12/21 06:43:26;;;;;;;25.38;13.85;;;;;;;-0.05;55.50;102296.47;5018647;28;20474;-77
2022/12/21 06:45:56;;;;;;;25.63;14.80;;;;;;;0.06;55.40;102296.88;5025227;28;20398;-77
2022/12/21 06:48:23;;;;;;;24.87;13.53;;;;;;;0.04;55.16;102298.69;5018818;28;20385;-78
2022/12/21 06:50:59;;;;;;;22.30;12.57;;;;;;;-0.09;55.67;102300.94;5015051;28;20395;-79
2022/12/21 06:53:27;;;;;;;28.67;14.73;;;;;;;-0.13;55.62;102307.16;5032203;28;20386;-77
2022/12/21 06:56:00;;;;;;;27.10;15.88;;;;;;;-0.22;55.84;102297.13;5012245;28;20374;-80
2022/12/21 06:58:26;;;;;;;25.25;14.52;;;;;;;-0.17;55.78;102297.78;5031940;28;20384;-78
2022/12/21 07:00:52;;;;;;;24.53;13.90;;;;;;;-0.27;55.90;102306.88;5029942;28;20493;-79
2022/12/21 07:03:17;;;;;;;26.40;14.57;;;;;;;-0.23;56.23;102318.88;5026616;28;20853;-79
2022/12/21 07:05:43;;;;;;;26.27;14.20;;;;;;;-0.22;55.98;102320.56;5028855;28;20386;-79
2022/12/21 07:08:08;;;;;;;26.93;14.50;;;;;;;-0.21;56.23;102306.66;5027893;28;20433;-78
2022/12/21 07:10:33;;;;;;;22.05;12.43;;;;;;;-0.34;56.16;102311.50;5025938;28;20909;-78
2022/12/21 07:12:59;;;;;;;23.47;12.97;;;;;;;-0.25;56.18;102312.91;5019657;28;20422;-79
2022/12/21 07:15:25;;;;;;;23.97;13.57;;;;;;;-0.04;55.92;102312.03;5024550;28;20411;-79
2022/12/21 07:17:50;;;;;;;25.27;13.67;;;;;;;0.15;55.38;102311.28;5022636;28;20502;-78
2022/12/21 07:20:15;;;;;;;25.40;13.63;;;;;;;0.14;55.22;102304.38;5014133;28;20463;-78
2022/12/21 07:22:41;;;;;;;20.53;11.80;;;;;;;0.02;55.41;102310.94;5032599;28;20379;-79
2022/12/21 07:25:07;;;;;;;24.92;12.65;;;;;;;-0.10;55.38;102304.44;5029027;28;20820;-78
2022/12/21 07:27:32;;;;;;;23.48;13.38;;;;;;;0.04;55.57;102316.06;5029738;28;20449;-78
2022/12/21 07:29:58;;;;;;;22.27;12.77;;;;;;;-0.01;55.56;102311.06;5026915;28;20486;-78
2022/12/21 07:32:23;;;;;;;27.27;18.53;;;;;;;0.05;55.51;102308.19;5020819;28;20879;-78
2022/12/21 07:34:48;;;;;;;22.77;13.33;;;;;;;0.02;55.65;102312.69;5034419;28;20823;-79
2022/12/21 07:37:14;;;;;;;25.90;13.17;;;;;;;-0.02;55.33;102304.13;5042544;28;20380;-79
2022/12/21 07:39:39;;;;;;;18.10;9.73;;;;;;;-0.28;55.90;102308.63;5032150;28;20851;-78
2022/12/21 07:42:05;;;;;;;23.77;12.43;;;;;;;-0.25;56.48;102289.44;5028168;28;20458;-79
2022/12/21 07:44:30;;;;;;;25.73;13.88;;;;;;;-0.09;55.82;102295.72;5032001;28;20398;-78
2022/12/21 07:46:56;;;;;;;26.90;14.40;;;;;;;0.04;55.57;102297.81;5019757;28;20402;-78
2022/12/21 07:49:21;;;;;;;27.07;15.03;;;;;;;-0.02;55.52;102288.50;5029489;28;20382;-78
2022/12/21 07:51:47;;;;;;;30.07;15.73;;;;;;;0.01;55.96;102280.56;5022665;28;20430;-78
2022/12/21 07:54:12;;;;;;;28.55;15.50;;;;;;;0.04;55.35;102283.03;5018562;28;20391;-77
2022/12/21 07:56:38;;;;;;;34.10;18.83;;;;;;;0.08;55.71;102276.78;5033282;28;20379;-78
2022/12/21 07:59:03;;;;;;;27.67;15.68;;;;;;;0.30;55.39;102270.66;5030230;28;20441;-77
2022/12/21 08:01:29;;;;;;;41.80;22.03;;;;;;;0.41;55.21;102272.81;5027266;28;20711;-77
2022/12/21 08:03:57;;;;;;;54.50;25.93;;;;;;;0.32;55.07;102272.28;5028833;28;20414;-77
2022/12/21 08:06:22;;;;;;;30.27;17.48;;;;;;;0.28;55.29;102270.72;5024348;28;20399;-77
2022/12/21 08:08:48;;;;;;;29.17;16.80;;;;;;;0.44;54.88;102276.16;5027302;28;20386;-77
2022/12/21 08:11:18;;;;;;;27.08;15.48;;;;;;;0.30;55.23;102270.66;5026564;28;20413;-77
2022/12/21 08:13:45;;;;;;;28.40;16.02;;;;;;;0.29;55.05;102280.25;5024864;28;20410;-77
2022/12/21 08:16:13;;;;;;;24.45;13.48;;;;;;;0.11;55.36;102270.59;5019547;28;20384;-77
2022/12/21 08:18:38;;;;;;;22.17;12.83;;;;;;;0.19;55.52;102269.34;5027771;28;20405;-76
2022/12/21 08:21:04;;;;;;;31.57;18.03;;;;;;;0.30;55.27;102266.28;5004469;28;20767;-77
2022/12/21 08:23:30;;;;;;;28.83;17.38;;;;;;;0.29;55.10;102266.34;5032178;28;20444;-77
2022/12/21 08:26:01;;;;;;;27.75;15.65;;;;;;;0.31;55.09;102268.00;5014593;28;20458;-77
2022/12/21 08:28:27;;;;;;;28.10;15.18;;;;;;;0.33;55.25;102271.38;5015973;28;20808;-78
2022/12/21 08:31:00;;;;;;;27.13;15.20;;;;;;;0.51;54.63;102267.16;5029422;28;21081;-79
2022/12/21 08:33:26;;;;;;;29.02;16.42;;;;;;;0.57;54.35;102251.22;5029513;28;20401;-78
2022/12/21 08:35:51;;;;;;;31.17;18.30;;;;;;;0.66;54.37;102246.50;5022907;28;20759;-79
2022/12/21 08:38:16;;;;;;;37.57;20.20;;;;;;;0.74;54.35;102237.44;5010833;28;20481;-79
2022/12/21 08:40:42;;;;;;;33.45;18.90;;;;;;;0.80;54.04;102236.31;5025647;28;20382;-78
2022/12/21 08:43:08;;;;;;;29.30;17.52;;;;;;;0.77;54.16;102233.81;5024524;28;20389;-78
2022/12/21 08:45:33;;;;;;;34.97;19.03;;;;;;;0.77;54.51;102220.78;5014149;28;20420;-78
2022/12/21 08:47:59;;;;;;;34.07;19.07;;;;;;;0.91;54.42;102233.22;5018502;28;20384;-79
2022/12/21 08:50:24;;;;;;;33.87;19.67;;;;;;;0.81;54.40;102226.69;5027722;28;20394;-77
2022/12/21 08:52:49;;;;;;;29.67;17.23;;;;;;;0.86;53.93;102235.19;5030285;28;20933;-79
2022/12/21 08:55:15;;;;;;;30.20;16.57;;;;;;;0.48;54.63;102229.91;5033579;28;20518;-77
2022/12/21 08:57:40;;;;;;;29.38;17.00;;;;;;;0.29;55.24;102235.06;5026714;28;20382;-80
2022/12/21 09:00:09;;;;;;;37.03;20.02;;;;;;;0.16;55.77;102234.72;5025268;28;20410;-80
2022/12/21 09:02:36;;;;;;;43.58;25.67;;;;;;;0.41;55.62;102226.72;5034090;28;20382;-78
2022/12/21 09:05:01;;;;;;;38.72;21.83;;;;;;;0.72;55.17;102226.22;5030217;28;20384;-78
2022/12/21 09:07:27;;;;;;;39.17;22.50;;;;;;;0.70;54.84;102219.34;5021439;28;20693;-79
2022/12/21 09:09:52;;;;;;;43.50;23.67;;;;;;;0.84;54.52;102218.75;5031584;28;20708;-79
2022/12/21 09:12:18;;;;;;;44.93;26.80;;;;;;;1.03;54.71;102217.00;5024025;28;20733;-78
2022/12/21 09:14:43;;;;;;;56.63;34.10;;;;;;;1.23;54.22;102212.59;5012775;28;20415;-77
2022/12/21 09:17:09;;;;;;;34.65;20.10;;;;;;;1.33;53.94;102214.72;5015585;28;20387;-78
2022/12/21 09:19:35;;;;;;;36.63;22.00;;;;;;;1.38;53.73;102198.78;5033519;28;20433;-78
2022/12/21 09:22:00;;;;;;;36.27;20.80;;;;;;;1.14;53.38;102206.03;5022410;28;20735;-78
2022/12/21 09:24:26;;;;;;;38.17;22.30;;;;;;;1.04;54.12;102197.78;5032386;28;20451;-77
2022/12/21 09:26:51;;;;;;;73.33;41.43;;;;;;;1.20;54.12;102199.69;5033352;28;20413;-76
2022/12/21 09:29:17;;;;;;;51.63;30.37;;;;;;;1.36;53.69;102194.56;5035880;28;20472;-79
2022/12/21 09:31:43;;;;;;;45.17;28.67;;;;;;;1.42;53.73;102189.03;5034949;28;20433;-77
2022/12/21 09:34:08;;;;;;;44.95;24.33;;;;;;;1.51;53.57;102191.22;5033487;28;20385;-78
2022/12/21 09:36:34;;;;;;;41.20;22.80;;;;;;;1.36;52.93;102184.13;5033148;28;20386;-78
2022/12/21 09:38:59;;;;;;;144.80;52.70;;;;;;;1.06;53.63;102177.69;5019791;28;20818;-78
2022/12/21 09:41:27;;;;;;;43.27;22.03;;;;;;;1.10;54.34;102179.22;5028240;28;20372;-79
2022/12/21 09:44:24;;;;;;;115.72;44.78;;;;;;;1.18;53.56;102181.47;5025277;28;20516;-79
2022/12/21 09:46:53;;;;;;;26.23;14.98;;;;;;;0.75;54.32;102171.25;5019588;28;20382;-78
2022/12/21 09:49:30;;;;;;;25.77;15.82;;;;;;;0.73;54.87;102182.69;5033268;28;20386;-78
2022/12/21 09:51:59;;;;;;;29.77;15.87;;;;;;;0.59;55.14;102170.25;5032349;28;20509;-78
2022/12/21 09:54:38;;;;;;;25.73;13.98;;;;;;;0.59;54.68;102172.03;5032536;28;20701;-78
2022/12/21 09:57:05;;;;;;;25.30;14.98;;;;;;;0.70;54.56;102167.16;5034375;28;20371;-77
2022/12/21 09:59:31;;;;;;;24.95;14.38;;;;;;;0.53;54.91;102163.56;5021594;28;20427;-77
2022/12/21 10:02:02;;;;;;;29.43;15.50;;;;;;;0.59;54.74;102156.38;5034225;28;20479;-79
2022/12/21 10:04:27;;;;;;;31.33;18.30;;;;;;;0.60;54.66;102152.84;5039195;28;20855;-77
2022/12/21 10:07:28;;;;;;;56.53;29.07;;;;;;;0.71;54.59;102153.22;5020569;28;20387;-77
2022/12/21 10:10:15;;;;;;;29.20;16.50;;;;;;;0.45;55.16;102149.16;5027132;28;20453;-77
2022/12/21 10:12:44;;;;;;;26.90;15.70;;;;;;;0.43;55.75;102146.59;5023244;28;20405;-78
2022/12/21 10:15:20;;;;;;;26.45;15.90;;;;;;;0.59;55.05;102145.94;5041293;28;20374;-78
2022/12/21 10:17:58;;;;;;;30.42;17.45;;;;;;;0.71;54.96;102143.59;5018436;28;20386;-77
2022/12/21 10:20:38;;;;;;;33.47;19.33;;;;;;;0.80;54.55;102138.88;5035825;28;20447;-77
2022/12/21 10:23:15;;;;;;;30.85;16.42;;;;;;;0.77;54.76;102126.81;5038125;28;20374;-81
2022/12/21 10:25:46;;;;;;;29.02;16.52;;;;;;;0.92;54.48;102125.25;5021062;28;20394;-81
2022/12/21 10:28:23;;;;;;;26.13;15.70;;;;;;;0.83;54.45;102129.16;5038086;28;20390;-79
2022/12/21 10:31:01;;;;;;;35.05;20.13;;;;;;;0.77;54.87;102124.19;5040280;28;20418;-77
2022/12/21 10:33:27;;;;;;;28.47;16.10;;;;;;;0.76;54.80;102115.53;5038798;28;20445;-78
2022/12/21 10:35:58;;;;;;;39.70;22.30;;;;;;;0.60;55.28;102109.34;5039671;28;20389;-79
2022/12/21 10:38:29;;;;;;;38.58;22.48;;;;;;;0.59;55.27;102109.41;5033041;28;20402;-78
2022/12/21 10:40:55;;;;;;;30.23;18.33;;;;;;;0.73;54.96;102107.00;5010206;28;20478;-81
2022/12/21 10:43:21;;;;;;;36.97;21.42;;;;;;;0.81;55.10;102093.56;5030509;28;20406;-78
2022/12/21 10:45:48;;;;;;;36.88;18.67;;;;;;;1.01;55.02;102090.88;5031095;28;20762;-77
2022/12/21 10:48:14;;;;;;;33.03;19.58;;;;;;;0.97;54.57;102086.69;5016405;28;20413;-79
2022/12/21 10:50:44;;;;;;;32.92;18.70;;;;;;;0.88;54.79;102093.25;5011335;28;20406;-79
2022/12/21 10:53:27;;;;;;;33.85;20.08;;;;;;;0.84;54.89;102090.84;5009887;28;20402;-79
2022/12/21 10:55:56;;;;;;;41.47;24.38;;;;;;;0.75;54.94;102099.94;5025120;28;21036;-78
2022/12/21 10:58:25;;;;;;;38.47;23.90;;;;;;;0.87;55.12;102075.03;5022242;28;20953;-78
2022/12/21 11:00:56;;;;;;;30.02;17.90;;;;;;;0.99;55.10;102065.75;5023718;28;20891;-78
2022/12/21 11:03:28;;;;;;;32.88;19.80;;;;;;;1.12;54.68;102066.84;5026951;28;20378;-80
2022/12/21 11:05:54;;;;;;;45.72;25.55;;;;;;;0.91;54.91;102068.72;5012102;28;20410;-79
2022/12/21 11:08:30;;;;;;;59.47;32.00;;;;;;;0.74;55.42;102067.78;5029542;28;20406;-79
2022/12/21 11:11:02;;;;;;;49.87;26.37;;;;;;;0.86;54.94;102050.66;5010186;28;22397;-79
2022/12/21 11:13:29;;;;;;;44.58;24.65;;;;;;;1.04;55.04;102063.75;5025178;28;20401;-79
2022/12/21 11:16:21;;;;;;;59.22;35.05;;;;;;;1.11;54.97;102055.53;5043901;28;20422;-81
2022/12/21 11:18:49;;;;;;;39.05;24.23;;;;;;;1.33;54.87;102057.09;5011612;28;20410;-78
2022/12/21 11:21:33;;;;;;;41.20;23.25;;;;;;;1.34;54.28;102053.56;5042475;28;20456;-79
2022/12/21 11:24:02;;;;;;;43.88;25.77;;;;;;;1.27;54.48;102049.56;5033544;28;20405;-78
2022/12/21 11:26:32;;;;;;;42.95;24.77;;;;;;;1.38;54.59;102049.03;5030661;28;20385;-78
2022/12/21 11:29:13;;;;;;;43.53;24.83;;;;;;;1.17;54.69;102053.56;5034529;28;20430;-78
2022/12/21 11:31:39;;;;;;;42.88;23.45;;;;;;;1.19;54.65;102047.34;5034749;28;20418;-78
2022/12/21 11:34:05;;;;;;;38.97;21.75;;;;;;;1.27;54.14;102026.91;5033962;28;20470;-78
2022/12/21 11:36:30;;;;;;;61.38;31.73;;;;;;;1.49;54.42;102034.47;5034181;28;20411;-78
2022/12/21 11:38:56;;;;;;;46.10;24.77;;;;;;;1.66;53.83;102032.81;5033971;28;20379;-79